sensor_id;sensor_type;location;lat;lon;timestamp;P1;durP1;ratioP1;P2;durP2;ratioP2
27428;SDS011;14881;48.092;11.574;2023-04-30T00:00:27;10.43;;;7.90;;
27428;SDS011;14881;48.092;11.574;2023-04-30T00:02:55;8.10;;;6.85;;
27428;SDS011;14881;48.092;11.574;2023-04-30T00:05:23;10.43;;;7.05;;
27428;SDS011;14881;48.092;11.574;2023-04-30T00:07:52;8.48;;;7.57;;
27428;SDS011;14881;48.092;11.574;2023-04-30T00:10:20;9.10;;;7.72;;
27428;SDS011;14881;48.092;11.574;2023-04-30T00:12:47;8.77;;;7.40;;
27428;SDS011;14881;48.092;11.574;2023-04-30T00:15:15;8.52;;;7.13;;
27428;SDS011;14881;48.092;11.574;2023-04-30T00:17:43;9.80;;;7.28;;
27428;SDS011;14881;48.092;11.574;2023-04-30T00:20:11;10.77;;;8.18;;
27428;SDS011;14881;48.092;11.574;2023-04-30T00:22:39;11.90;;;8.05;;
27428;SDS011;14881;48.092;11.574;2023-04-30T00:25:08;10.13;;;7.43;;
27428;SDS011;14881;48.092;11.574;2023-04-30T00:27:36;10.88;;;8.10;;
27428;SDS011;14881;48.092;11.574;2023-04-30T00:30:06;11.77;;;8.20;;
27428;SDS011;14881;48.092;11.574;2023-04-30T00:32:34;10.20;;;8.00;;
27428;SDS011;14881;48.092;11.574;2023-04-30T00:35:02;9.82;;;7.18;;
27428;SDS011;14881;48.092;11.574;2023-04-30T00:37:30;11.27;;;8.38;;
27428;SDS011;14881;48.092;11.574;2023-04-30T00:39:58;9.70;;;7.00;;
27428;SDS011;14881;48.092;11.574;2023-04-30T00:42:27;9.50;;;7.07;;
27428;SDS011;14881;48.092;11.574;2023-04-30T00:44:54;8.48;;;7.13;;
27428;SDS011;14881;48.092;11.574;2023-04-30T00:47:22;8.73;;;7.70;;
27428;SDS011;14881;48.092;11.574;2023-04-30T00:49:50;10.85;;;7.25;;
27428;SDS011;14881;48.092;11.574;2023-04-30T00:52:18;12.65;;;7.90;;
27428;SDS011;14881;48.092;11.574;2023-04-30T00:54:46;9.30;;;7.57;;
27428;SDS011;14881;48.092;11.574;2023-04-30T00:57:15;9.05;;;7.70;;
27428;SDS011;14881;48.092;11.574;2023-04-30T00:59:45;11.27;;;7.68;;
27428;SDS011;14881;48.092;11.574;2023-04-30T01:02:13;9.98;;;8.25;;
27428;SDS011;14881;48.092;11.574;2023-04-30T01:04:42;12.13;;;8.63;;
27428;SDS011;14881;48.092;11.574;2023-04-30T01:07:10;11.00;;;9.10;;
27428;SDS011;14881;48.092;11.574;2023-04-30T01:09:38;10.43;;;8.10;;
27428;SDS011;14881;48.092;11.574;2023-04-30T01:12:07;13.25;;;8.48;;
27428;SDS011;14881;48.092;11.574;2023-04-30T01:14:41;10.93;;;7.80;;
27428;SDS011;14881;48.092;11.574;2023-04-30T01:17:20;8.77;;;7.13;;
27428;SDS011;14881;48.092;11.574;2023-04-30T01:19:54;9.73;;;8.05;;
27428;SDS011;14881;48.092;11.574;2023-04-30T01:22:34;9.20;;;8.20;;
27428;SDS011;14881;48.092;11.574;2023-04-30T01:25:05;9.38;;;7.65;;
27428;SDS011;14881;48.092;11.574;2023-04-30T01:27:59;11.45;;;7.93;;
27428;SDS011;14881;48.092;11.574;2023-04-30T01:30:29;12.10;;;9.45;;
27428;SDS011;14881;48.092;11.574;2023-04-30T01:32:58;10.02;;;7.10;;
27428;SDS011;14881;48.092;11.574;2023-04-30T01:35:31;11.65;;;8.52;;
27428;SDS011;14881;48.092;11.574;2023-04-30T01:38:10;11.13;;;8.73;;
27428;SDS011;14881;48.092;11.574;2023-04-30T01:40:49;10.90;;;8.07;;
27428;SDS011;14881;48.092;11.574;2023-04-30T01:43:24;11.35;;;8.68;;
27428;SDS011;14881;48.092;11.574;2023-04-30T01:46:03;11.50;;;8.02;;
27428;SDS011;14881;48.092;11.574;2023-04-30T01:48:39;10.10;;;8.10;;
27428;SDS011;14881;48.092;11.574;2023-04-30T01:51:14;10.77;;;9.18;;
27428;SDS011;14881;48.092;11.574;2023-04-30T01:53:46;10.07;;;8.30;;
27428;SDS011;14881;48.092;11.574;2023-04-30T01:56:16;11.13;;;8.60;;
27428;SDS011;14881;48.092;11.574;2023-04-30T01:58:49;10.70;;;8.98;;
27428;SDS011;14881;48.092;11.574;2023-04-30T02:01:25;10.88;;;8.15;;
27428;SDS011;14881;48.092;11.574;2023-04-30T02:03:54;12.57;;;8.88;;
27428;SDS011;14881;48.092;11.574;2023-04-30T02:06:22;12.95;;;8.65;;
27428;SDS011;14881;48.092;11.574;2023-04-30T02:08:53;9.30;;;8.30;;
27428;SDS011;14881;48.092;11.574;2023-04-30T02:11:21;12.40;;;9.88;;
27428;SDS011;14881;48.092;11.574;2023-04-30T02:13:51;11.63;;;8.52;;
27428;SDS011;14881;48.092;11.574;2023-04-30T02:16:19;11.65;;;8.90;;
27428;SDS011;14881;48.092;11.574;2023-04-30T02:18:47;10.52;;;8.57;;
27428;SDS011;14881;48.092;11.574;2023-04-30T02:21:14;11.70;;;9.25;;
27428;SDS011;14881;48.092;11.574;2023-04-30T02:23:42;11.10;;;9.13;;
27428;SDS011;14881;48.092;11.574;2023-04-30T02:26:10;12.38;;;9.32;;
27428;SDS011;14881;48.092;11.574;2023-04-30T02:28:37;11.52;;;9.45;;
27428;SDS011;14881;48.092;11.574;2023-04-30T02:31:07;12.02;;;8.98;;
27428;SDS011;14881;48.092;11.574;2023-04-30T02:33:34;11.65;;;9.23;;
27428;SDS011;14881;48.092;11.574;2023-04-30T02:36:02;11.45;;;9.07;;
27428;SDS011;14881;48.092;11.574;2023-04-30T02:38:30;12.65;;;9.48;;
27428;SDS011;14881;48.092;11.574;2023-04-30T02:40:58;11.07;;;9.18;;
27428;SDS011;14881;48.092;11.574;2023-04-30T02:43:25;12.35;;;9.82;;
27428;SDS011;14881;48.092;11.574;2023-04-30T02:45:53;13.20;;;10.13;;
27428;SDS011;14881;48.092;11.574;2023-04-30T02:48:22;10.77;;;9.32;;
27428;SDS011;14881;48.092;11.574;2023-04-30T02:50:50;11.95;;;9.27;;
27428;SDS011;14881;48.092;11.574;2023-04-30T02:53:18;12.73;;;9.57;;
27428;SDS011;14881;48.092;11.574;2023-04-30T02:55:45;13.98;;;10.13;;
27428;SDS011;14881;48.092;11.574;2023-04-30T02:58:13;13.45;;;10.35;;
27428;SDS011;14881;48.092;11.574;2023-04-30T03:00:41;13.25;;;10.32;;
27428;SDS011;14881;48.092;11.574;2023-04-30T03:03:09;12.60;;;9.45;;
27428;SDS011;14881;48.092;11.574;2023-04-30T03:05:38;13.05;;;10.25;;
27428;SDS011;14881;48.092;11.574;2023-04-30T03:08:06;11.82;;;9.82;;
27428;SDS011;14881;48.092;11.574;2023-04-30T03:10:33;13.02;;;10.25;;
27428;SDS011;14881;48.092;11.574;2023-04-30T03:13:01;16.45;;;11.10;;
27428;SDS011;14881;48.092;11.574;2023-04-30T03:15:31;12.45;;;9.70;;
27428;SDS011;14881;48.092;11.574;2023-04-30T03:17:58;14.65;;;11.07;;
27428;SDS011;14881;48.092;11.574;2023-04-30T03:20:26;12.23;;;10.50;;
27428;SDS011;14881;48.092;11.574;2023-04-30T03:22:55;11.57;;;9.93;;
27428;SDS011;14881;48.092;11.574;2023-04-30T03:25:23;13.95;;;11.02;;
27428;SDS011;14881;48.092;11.574;2023-04-30T03:27:51;13.70;;;10.43;;
27428;SDS011;14881;48.092;11.574;2023-04-30T03:30:19;12.65;;;9.48;;
27428;SDS011;14881;48.092;11.574;2023-04-30T03:32:46;12.50;;;10.57;;
27428;SDS011;14881;48.092;11.574;2023-04-30T03:35:14;12.40;;;10.70;;
27428;SDS011;14881;48.092;11.574;2023-04-30T03:37:42;15.27;;;11.38;;
27428;SDS011;14881;48.092;11.574;2023-04-30T03:40:11;14.57;;;11.15;;
27428;SDS011;14881;48.092;11.574;2023-04-30T03:42:39;14.27;;;10.55;;
27428;SDS011;14881;48.092;11.574;2023-04-30T03:45:07;13.05;;;10.70;;
27428;SDS011;14881;48.092;11.574;2023-04-30T03:47:35;15.52;;;10.60;;
27428;SDS011;14881;48.092;11.574;2023-04-30T03:50:03;12.63;;;10.98;;
27428;SDS011;14881;48.092;11.574;2023-04-30T03:52:32;15.10;;;11.77;;
27428;SDS011;14881;48.092;11.574;2023-04-30T03:55:01;14.68;;;11.15;;
27428;SDS011;14881;48.092;11.574;2023-04-30T03:57:31;16.58;;;11.85;;
27428;SDS011;14881;48.092;11.574;2023-04-30T03:59:59;13.07;;;11.02;;
27428;SDS011;14881;48.092;11.574;2023-04-30T04:02:26;13.95;;;11.25;;
27428;SDS011;14881;48.092;11.574;2023-04-30T04:04:54;15.48;;;12.15;;
27428;SDS011;14881;48.092;11.574;2023-04-30T04:07:22;14.52;;;11.32;;
27428;SDS011;14881;48.092;11.574;2023-04-30T04:09:50;18.38;;;12.35;;
27428;SDS011;14881;48.092;11.574;2023-04-30T04:12:18;15.52;;;11.70;;
27428;SDS011;14881;48.092;11.574;2023-04-30T04:14:47;12.65;;;10.65;;
27428;SDS011;14881;48.092;11.574;2023-04-30T04:17:14;14.00;;;10.98;;
27428;SDS011;14881;48.092;11.574;2023-04-30T04:19:42;14.05;;;11.48;;
27428;SDS011;14881;48.092;11.574;2023-04-30T04:22:10;16.77;;;12.57;;
27428;SDS011;14881;48.092;11.574;2023-04-30T04:24:38;19.35;;;12.93;;
27428;SDS011;14881;48.092;11.574;2023-04-30T04:27:05;14.32;;;12.23;;
27428;SDS011;14881;48.092;11.574;2023-04-30T04:29:34;16.60;;;11.70;;
27428;SDS011;14881;48.092;11.574;2023-04-30T04:32:03;14.65;;;12.20;;
27428;SDS011;14881;48.092;11.574;2023-04-30T04:34:31;13.82;;;11.15;;
27428;SDS011;14881;48.092;11.574;2023-04-30T04:36:59;14.02;;;11.40;;
27428;SDS011;14881;48.092;11.574;2023-04-30T04:39:27;15.02;;;12.45;;
27428;SDS011;14881;48.092;11.574;2023-04-30T04:41:54;17.55;;;12.32;;
27428;SDS011;14881;48.092;11.574;2023-04-30T04:44:23;15.30;;;11.70;;
27428;SDS011;14881;48.092;11.574;2023-04-30T04:46:52;15.63;;;11.55;;
27428;SDS011;14881;48.092;11.574;2023-04-30T04:49:23;14.48;;;11.27;;
27428;SDS011;14881;48.092;11.574;2023-04-30T04:51:51;17.42;;;11.82;;
27428;SDS011;14881;48.092;11.574;2023-04-30T04:54:18;14.70;;;10.68;;
27428;SDS011;14881;48.092;11.574;2023-04-30T04:56:46;16.77;;;11.60;;
27428;SDS011;14881;48.092;11.574;2023-04-30T04:59:15;13.13;;;11.35;;
27428;SDS011;14881;48.092;11.574;2023-04-30T05:01:43;16.52;;;11.25;;
27428;SDS011;14881;48.092;11.574;2023-04-30T05:04:11;12.65;;;11.27;;
27428;SDS011;14881;48.092;11.574;2023-04-30T05:06:40;15.45;;;12.75;;
27428;SDS011;14881;48.092;11.574;2023-04-30T05:09:08;14.57;;;11.00;;
27428;SDS011;14881;48.092;11.574;2023-04-30T05:11:36;15.75;;;12.10;;
27428;SDS011;14881;48.092;11.574;2023-04-30T05:14:06;12.77;;;10.73;;
27428;SDS011;14881;48.092;11.574;2023-04-30T05:16:34;14.23;;;10.85;;
27428;SDS011;14881;48.092;11.574;2023-04-30T05:19:02;13.98;;;11.25;;
27428;SDS011;14881;48.092;11.574;2023-04-30T05:21:29;16.23;;;11.85;;
27428;SDS011;14881;48.092;11.574;2023-04-30T05:23:59;14.00;;;11.40;;
27428;SDS011;14881;48.092;11.574;2023-04-30T05:26:27;15.30;;;11.95;;
27428;SDS011;14881;48.092;11.574;2023-04-30T05:28:55;15.95;;;11.68;;
27428;SDS011;14881;48.092;11.574;2023-04-30T05:31:23;14.95;;;11.75;;
27428;SDS011;14881;48.092;11.574;2023-04-30T05:33:50;15.23;;;12.07;;
27428;SDS011;14881;48.092;11.574;2023-04-30T05:36:18;13.43;;;11.95;;
27428;SDS011;14881;48.092;11.574;2023-04-30T05:38:46;14.93;;;11.65;;
27428;SDS011;14881;48.092;11.574;2023-04-30T05:41:15;15.05;;;11.90;;
27428;SDS011;14881;48.092;11.574;2023-04-30T05:43:43;14.20;;;12.13;;
27428;SDS011;14881;48.092;11.574;2023-04-30T05:46:10;14.10;;;11.35;;
27428;SDS011;14881;48.092;11.574;2023-04-30T05:48:38;14.25;;;12.07;;
27428;SDS011;14881;48.092;11.574;2023-04-30T05:51:06;13.27;;;11.00;;
27428;SDS011;14881;48.092;11.574;2023-04-30T05:53:35;13.10;;;10.23;;
27428;SDS011;14881;48.092;11.574;2023-04-30T05:56:03;14.65;;;12.23;;
27428;SDS011;14881;48.092;11.574;2023-04-30T05:58:32;14.40;;;11.18;;
27428;SDS011;14881;48.092;11.574;2023-04-30T06:01:00;13.98;;;11.68;;
27428;SDS011;14881;48.092;11.574;2023-04-30T06:03:28;14.95;;;11.52;;
27428;SDS011;14881;48.092;11.574;2023-04-30T06:05:56;13.38;;;10.50;;
27428;SDS011;14881;48.092;11.574;2023-04-30T06:08:23;13.02;;;10.80;;
27428;SDS011;14881;48.092;11.574;2023-04-30T06:10:51;13.50;;;10.43;;
27428;SDS011;14881;48.092;11.574;2023-04-30T06:13:19;11.88;;;10.27;;
27428;SDS011;14881;48.092;11.574;2023-04-30T06:15:48;12.15;;;10.20;;
27428;SDS011;14881;48.092;11.574;2023-04-30T06:18:16;13.30;;;10.98;;
27428;SDS011;14881;48.092;11.574;2023-04-30T06:20:43;11.68;;;10.43;;
27428;SDS011;14881;48.092;11.574;2023-04-30T06:23:11;12.45;;;10.52;;
27428;SDS011;14881;48.092;11.574;2023-04-30T06:25:39;12.85;;;11.45;;
27428;SDS011;14881;48.092;11.574;2023-04-30T06:28:07;11.90;;;10.32;;
27428;SDS011;14881;48.092;11.574;2023-04-30T06:30:35;11.80;;;10.25;;
27428;SDS011;14881;48.092;11.574;2023-04-30T06:33:04;11.25;;;10.02;;
27428;SDS011;14881;48.092;11.574;2023-04-30T06:35:32;13.13;;;10.18;;
27428;SDS011;14881;48.092;11.574;2023-04-30T06:38:00;11.88;;;9.80;;
27428;SDS011;14881;48.092;11.574;2023-04-30T06:40:28;10.05;;;9.05;;
27428;SDS011;14881;48.092;11.574;2023-04-30T06:42:56;12.40;;;9.60;;
27428;SDS011;14881;48.092;11.574;2023-04-30T06:45:23;10.32;;;8.98;;
27428;SDS011;14881;48.092;11.574;2023-04-30T06:47:51;10.80;;;8.65;;
27428;SDS011;14881;48.092;11.574;2023-04-30T06:50:22;8.70;;;7.80;;
27428;SDS011;14881;48.092;11.574;2023-04-30T06:52:50;9.50;;;8.50;;
27428;SDS011;14881;48.092;11.574;2023-04-30T06:55:17;10.68;;;8.85;;
27428;SDS011;14881;48.092;11.574;2023-04-30T06:57:45;9.98;;;8.60;;
27428;SDS011;14881;48.092;11.574;2023-04-30T07:00:13;9.25;;;8.20;;
27428;SDS011;14881;48.092;11.574;2023-04-30T07:02:41;12.90;;;8.70;;
27428;SDS011;14881;48.092;11.574;2023-04-30T07:05:10;10.38;;;8.45;;
27428;SDS011;14881;48.092;11.574;2023-04-30T07:07:39;9.52;;;8.57;;
27428;SDS011;14881;48.092;11.574;2023-04-30T07:10:07;10.05;;;8.57;;
27428;SDS011;14881;48.092;11.574;2023-04-30T07:12:35;11.70;;;9.48;;
27428;SDS011;14881;48.092;11.574;2023-04-30T07:15:03;10.95;;;8.95;;
27428;SDS011;14881;48.092;11.574;2023-04-30T07:17:31;10.07;;;8.40;;
27428;SDS011;14881;48.092;11.574;2023-04-30T07:19:58;11.20;;;8.45;;
27428;SDS011;14881;48.092;11.574;2023-04-30T07:22:26;10.23;;;9.23;;
27428;SDS011;14881;48.092;11.574;2023-04-30T07:24:55;10.05;;;9.05;;
27428;SDS011;14881;48.092;11.574;2023-04-30T07:27:24;9.75;;;8.80;;
27428;SDS011;14881;48.092;11.574;2023-04-30T07:29:51;10.32;;;9.00;;
27428;SDS011;14881;48.092;11.574;2023-04-30T07:32:20;9.18;;;8.27;;
27428;SDS011;14881;48.092;11.574;2023-04-30T07:34:47;10.40;;;9.02;;
27428;SDS011;14881;48.092;11.574;2023-04-30T07:37:17;11.18;;;8.35;;
27428;SDS011;14881;48.092;11.574;2023-04-30T07:39:45;9.82;;;8.65;;
27428;SDS011;14881;48.092;11.574;2023-04-30T07:42:14;9.30;;;8.35;;
27428;SDS011;14881;48.092;11.574;2023-04-30T07:44:41;10.82;;;8.75;;
27428;SDS011;14881;48.092;11.574;2023-04-30T07:47:09;9.95;;;8.63;;
27428;SDS011;14881;48.092;11.574;2023-04-30T07:49:37;9.35;;;8.05;;
27428;SDS011;14881;48.092;11.574;2023-04-30T07:52:05;9.38;;;8.20;;
27428;SDS011;14881;48.092;11.574;2023-04-30T07:54:36;9.82;;;7.90;;
27428;SDS011;14881;48.092;11.574;2023-04-30T07:57:05;8.75;;;7.85;;
27428;SDS011;14881;48.092;11.574;2023-04-30T07:59:35;8.63;;;7.75;;
27428;SDS011;14881;48.092;11.574;2023-04-30T08:02:02;9.13;;;8.05;;
27428;SDS011;14881;48.092;11.574;2023-04-30T08:04:30;8.63;;;7.72;;
27428;SDS011;14881;48.092;11.574;2023-04-30T08:06:58;9.40;;;7.30;;
27428;SDS011;14881;48.092;11.574;2023-04-30T08:09:27;8.23;;;7.43;;
27428;SDS011;14881;48.092;11.574;2023-04-30T08:11:54;9.32;;;7.43;;
27428;SDS011;14881;48.092;11.574;2023-04-30T08:14:22;7.95;;;7.15;;
27428;SDS011;14881;48.092;11.574;2023-04-30T08:16:51;8.55;;;7.68;;
27428;SDS011;14881;48.092;11.574;2023-04-30T08:19:19;7.93;;;6.82;;
27428;SDS011;14881;48.092;11.574;2023-04-30T08:21:46;8.80;;;7.88;;
27428;SDS011;14881;48.092;11.574;2023-04-30T08:24:14;8.40;;;7.45;;
27428;SDS011;14881;48.092;11.574;2023-04-30T08:26:42;8.25;;;7.38;;
27428;SDS011;14881;48.092;11.574;2023-04-30T08:29:10;8.20;;;7.40;;
27428;SDS011;14881;48.092;11.574;2023-04-30T08:31:37;7.88;;;6.97;;
27428;SDS011;14881;48.092;11.574;2023-04-30T08:34:06;8.40;;;6.25;;
27428;SDS011;14881;48.092;11.574;2023-04-30T08:36:34;7.18;;;6.22;;
27428;SDS011;14881;48.092;11.574;2023-04-30T08:39:02;9.18;;;6.80;;
27428;SDS011;14881;48.092;11.574;2023-04-30T08:41:31;6.72;;;6.07;;
27428;SDS011;14881;48.092;11.574;2023-04-30T08:44:00;6.60;;;6.00;;
27428;SDS011;14881;48.092;11.574;2023-04-30T08:46:31;8.82;;;7.00;;
27428;SDS011;14881;48.092;11.574;2023-04-30T08:49:02;7.72;;;6.70;;
27428;SDS011;14881;48.092;11.574;2023-04-30T08:51:31;6.30;;;5.70;;
27428;SDS011;14881;48.092;11.574;2023-04-30T08:54:02;6.95;;;6.30;;
27428;SDS011;14881;48.092;11.574;2023-04-30T08:56:33;6.60;;;6.00;;
27428;SDS011;14881;48.092;11.574;2023-04-30T08:59:00;6.50;;;5.95;;
27428;SDS011;14881;48.092;11.574;2023-04-30T09:01:28;6.75;;;5.90;;
27428;SDS011;14881;48.092;11.574;2023-04-30T09:03:56;5.72;;;5.22;;
27428;SDS011;14881;48.092;11.574;2023-04-30T09:06:24;5.82;;;5.22;;
27428;SDS011;14881;48.092;11.574;2023-04-30T09:08:54;6.35;;;5.40;;
27428;SDS011;14881;48.092;11.574;2023-04-30T09:11:22;6.82;;;5.57;;
27428;SDS011;14881;48.092;11.574;2023-04-30T09:13:51;5.60;;;5.10;;
27428;SDS011;14881;48.092;11.574;2023-04-30T09:16:19;6.30;;;5.68;;
27428;SDS011;14881;48.092;11.574;2023-04-30T09:18:48;7.60;;;5.90;;
27428;SDS011;14881;48.092;11.574;2023-04-30T09:21:16;6.53;;;5.65;;
27428;SDS011;14881;48.092;11.574;2023-04-30T09:23:55;6.38;;;5.68;;
27428;SDS011;14881;48.092;11.574;2023-04-30T09:26:29;6.03;;;5.43;;
27428;SDS011;14881;48.092;11.574;2023-04-30T09:28:58;7.03;;;6.33;;
27428;SDS011;14881;48.092;11.574;2023-04-30T09:31:27;6.13;;;5.53;;
27428;SDS011;14881;48.092;11.574;2023-04-30T09:33:55;7.10;;;6.43;;
27428;SDS011;14881;48.092;11.574;2023-04-30T09:36:22;6.72;;;5.93;;
27428;SDS011;14881;48.092;11.574;2023-04-30T09:38:50;6.03;;;5.43;;
27428;SDS011;14881;48.092;11.574;2023-04-30T09:41:23;6.15;;;5.65;;
27428;SDS011;14881;48.092;11.574;2023-04-30T09:43:52;5.85;;;5.25;;
27428;SDS011;14881;48.092;11.574;2023-04-30T09:46:21;5.90;;;5.30;;
27428;SDS011;14881;48.092;11.574;2023-04-30T09:48:56;5.45;;;4.95;;
27428;SDS011;14881;48.092;11.574;2023-04-30T09:51:25;5.88;;;5.38;;
27428;SDS011;14881;48.092;11.574;2023-04-30T09:53:53;6.47;;;5.88;;
27428;SDS011;14881;48.092;11.574;2023-04-30T09:56:23;6.38;;;5.78;;
27428;SDS011;14881;48.092;11.574;2023-04-30T09:58:52;7.20;;;5.60;;
27428;SDS011;14881;48.092;11.574;2023-04-30T10:01:22;8.40;;;6.28;;
27428;SDS011;14881;48.092;11.574;2023-04-30T10:03:52;6.10;;;5.50;;
27428;SDS011;14881;48.092;11.574;2023-04-30T10:06:20;6.00;;;5.20;;
27428;SDS011;14881;48.092;11.574;2023-04-30T10:08:50;5.50;;;5.00;;
27428;SDS011;14881;48.092;11.574;2023-04-30T10:11:25;5.35;;;4.90;;
27428;SDS011;14881;48.092;11.574;2023-04-30T10:13:56;6.05;;;5.50;;
27428;SDS011;14881;48.092;11.574;2023-04-30T10:16:31;5.47;;;4.97;;
27428;SDS011;14881;48.092;11.574;2023-04-30T10:19:06;6.20;;;5.50;;
27428;SDS011;14881;48.092;11.574;2023-04-30T10:21:39;6.15;;;5.55;;
27428;SDS011;14881;48.092;11.574;2023-04-30T10:24:08;5.68;;;5.03;;
27428;SDS011;14881;48.092;11.574;2023-04-30T10:26:38;5.25;;;4.75;;
27428;SDS011;14881;48.092;11.574;2023-04-30T10:29:07;6.32;;;5.70;;
27428;SDS011;14881;48.092;11.574;2023-04-30T10:31:36;9.63;;;6.43;;
27428;SDS011;14881;48.092;11.574;2023-04-30T10:34:05;6.45;;;5.95;;
27428;SDS011;14881;48.092;11.574;2023-04-30T10:36:41;6.50;;;5.90;;
27428;SDS011;14881;48.092;11.574;2023-04-30T10:39:13;6.80;;;6.10;;
27428;SDS011;14881;48.092;11.574;2023-04-30T10:41:45;6.97;;;5.93;;
27428;SDS011;14881;48.092;11.574;2023-04-30T10:44:14;8.30;;;6.00;;
27428;SDS011;14881;48.092;11.574;2023-04-30T10:46:47;8.18;;;6.68;;
27428;SDS011;14881;48.092;11.574;2023-04-30T10:49:20;7.13;;;6.43;;
27428;SDS011;14881;48.092;11.574;2023-04-30T10:51:51;5.63;;;5.15;;
27428;SDS011;14881;48.092;11.574;2023-04-30T10:54:21;5.95;;;5.45;;
27428;SDS011;14881;48.092;11.574;2023-04-30T10:56:54;6.60;;;5.43;;
27428;SDS011;14881;48.092;11.574;2023-04-30T10:59:36;5.78;;;5.18;;
27428;SDS011;14881;48.092;11.574;2023-04-30T11:02:04;5.30;;;4.80;;
27428;SDS011;14881;48.092;11.574;2023-04-30T11:04:32;5.13;;;4.25;;
27428;SDS011;14881;48.092;11.574;2023-04-30T11:07:01;4.43;;;4.03;;
27428;SDS011;14881;48.092;11.574;2023-04-30T11:09:35;4.80;;;4.22;;
27428;SDS011;14881;48.092;11.574;2023-04-30T11:12:10;5.00;;;4.60;;
27428;SDS011;14881;48.092;11.574;2023-04-30T11:14:40;5.18;;;4.57;;
27428;SDS011;14881;48.092;11.574;2023-04-30T11:17:09;4.75;;;4.03;;
27428;SDS011;14881;48.092;11.574;2023-04-30T11:19:41;6.78;;;4.65;;
27428;SDS011;14881;48.092;11.574;2023-04-30T11:22:14;4.72;;;4.32;;
27428;SDS011;14881;48.092;11.574;2023-04-30T11:24:49;5.07;;;4.68;;
27428;SDS011;14881;48.092;11.574;2023-04-30T11:27:23;5.93;;;4.57;;
27428;SDS011;14881;48.092;11.574;2023-04-30T11:29:52;5.75;;;5.15;;
27428;SDS011;14881;48.092;11.574;2023-04-30T11:32:22;5.82;;;5.22;;
27428;SDS011;14881;48.092;11.574;2023-04-30T11:34:51;5.75;;;4.78;;
27428;SDS011;14881;48.092;11.574;2023-04-30T11:37:27;4.70;;;4.30;;
27428;SDS011;14881;48.092;11.574;2023-04-30T11:39:57;5.55;;;5.05;;
27428;SDS011;14881;48.092;11.574;2023-04-30T11:42:28;5.70;;;4.28;;
27428;SDS011;14881;48.092;11.574;2023-04-30T11:45:03;5.22;;;4.72;;
27428;SDS011;14881;48.092;11.574;2023-04-30T11:47:39;7.18;;;4.78;;
27428;SDS011;14881;48.092;11.574;2023-04-30T11:52:37;5.68;;;5.07;;
27428;SDS011;14881;48.092;11.574;2023-04-30T11:55:06;5.13;;;4.72;;
27428;SDS011;14881;48.092;11.574;2023-04-30T11:57:40;4.80;;;4.30;;
27428;SDS011;14881;48.092;11.574;2023-04-30T12:00:10;6.00;;;4.78;;
27428;SDS011;14881;48.092;11.574;2023-04-30T12:02:39;5.03;;;4.10;;
27428;SDS011;14881;48.092;11.574;2023-04-30T12:05:12;4.72;;;4.32;;
27428;SDS011;14881;48.092;11.574;2023-04-30T12:07:46;5.15;;;4.13;;
27428;SDS011;14881;48.092;11.574;2023-04-30T12:10:14;4.68;;;4.28;;
27428;SDS011;14881;48.092;11.574;2023-04-30T12:12:44;4.32;;;3.90;;
27428;SDS011;14881;48.092;11.574;2023-04-30T12:15:14;4.75;;;4.28;;
27428;SDS011;14881;48.092;11.574;2023-04-30T12:17:43;5.28;;;4.40;;
27428;SDS011;14881;48.092;11.574;2023-04-30T12:20:12;5.47;;;4.93;;
27428;SDS011;14881;48.092;11.574;2023-04-30T12:22:41;5.18;;;3.90;;
27428;SDS011;14881;48.092;11.574;2023-04-30T12:25:11;4.88;;;3.80;;
27428;SDS011;14881;48.092;11.574;2023-04-30T12:27:41;5.18;;;4.03;;
27428;SDS011;14881;48.092;11.574;2023-04-30T12:30:13;6.60;;;4.50;;
27428;SDS011;14881;48.092;11.574;2023-04-30T12:32:41;4.30;;;3.88;;
27428;SDS011;14881;48.092;11.574;2023-04-30T12:35:12;7.05;;;3.53;;
27428;SDS011;14881;48.092;11.574;2023-04-30T12:37:42;4.18;;;3.72;;
27428;SDS011;14881;48.092;11.574;2023-04-30T12:40:11;5.60;;;3.38;;
27428;SDS011;14881;48.092;11.574;2023-04-30T12:42:40;4.07;;;3.75;;
27428;SDS011;14881;48.092;11.574;2023-04-30T12:45:08;5.38;;;3.90;;
27428;SDS011;14881;48.092;11.574;2023-04-30T12:47:39;6.35;;;3.95;;
27428;SDS011;14881;48.092;11.574;2023-04-30T12:50:08;3.97;;;3.67;;
27428;SDS011;14881;48.092;11.574;2023-04-30T12:52:37;3.88;;;3.55;;
27428;SDS011;14881;48.092;11.574;2023-04-30T12:55:16;4.38;;;3.58;;
27428;SDS011;14881;48.092;11.574;2023-04-30T12:58:03;5.15;;;4.00;;
27428;SDS011;14881;48.092;11.574;2023-04-30T13:00:42;3.80;;;3.50;;
27428;SDS011;14881;48.092;11.574;2023-04-30T13:03:16;3.83;;;3.42;;
27428;SDS011;14881;48.092;11.574;2023-04-30T13:05:46;3.95;;;3.38;;
27428;SDS011;14881;48.092;11.574;2023-04-30T13:08:15;3.90;;;3.60;;
27428;SDS011;14881;48.092;11.574;2023-04-30T13:10:44;3.75;;;3.45;;
27428;SDS011;14881;48.092;11.574;2023-04-30T13:13:14;4.85;;;3.38;;
27428;SDS011;14881;48.092;11.574;2023-04-30T13:15:42;4.72;;;4.20;;
27428;SDS011;14881;48.092;11.574;2023-04-30T13:18:10;4.72;;;4.10;;
27428;SDS011;14881;48.092;11.574;2023-04-30T13:20:42;3.90;;;3.50;;
27428;SDS011;14881;48.092;11.574;2023-04-30T13:23:10;3.90;;;3.60;;
27428;SDS011;14881;48.092;11.574;2023-04-30T13:25:38;4.28;;;3.65;;
27428;SDS011;14881;48.092;11.574;2023-04-30T13:28:07;4.10;;;3.70;;
27428;SDS011;14881;48.092;11.574;2023-04-30T13:30:34;4.07;;;3.67;;
27428;SDS011;14881;48.092;11.574;2023-04-30T13:33:02;3.40;;;3.10;;
27428;SDS011;14881;48.092;11.574;2023-04-30T13:35:30;4.93;;;3.85;;
27428;SDS011;14881;48.092;11.574;2023-04-30T13:37:59;3.88;;;3.42;;
27428;SDS011;14881;48.092;11.574;2023-04-30T13:40:27;3.90;;;3.42;;
27428;SDS011;14881;48.092;11.574;2023-04-30T13:42:55;6.82;;;5.30;;
27428;SDS011;14881;48.092;11.574;2023-04-30T13:45:23;7.13;;;4.20;;
27428;SDS011;14881;48.092;11.574;2023-04-30T13:47:50;6.70;;;4.25;;
27428;SDS011;14881;48.092;11.574;2023-04-30T13:50:18;4.22;;;3.83;;
27428;SDS011;14881;48.092;11.574;2023-04-30T13:52:46;4.00;;;3.60;;
27428;SDS011;14881;48.092;11.574;2023-04-30T13:55:15;4.32;;;3.72;;
27428;SDS011;14881;48.092;11.574;2023-04-30T13:57:42;5.72;;;3.47;;
27428;SDS011;14881;48.092;11.574;2023-04-30T14:00:10;4.45;;;3.20;;
27428;SDS011;14881;48.092;11.574;2023-04-30T14:02:39;3.22;;;3.03;;
27428;SDS011;14881;48.092;11.574;2023-04-30T14:05:07;4.00;;;3.60;;
27428;SDS011;14881;48.092;11.574;2023-04-30T14:07:36;3.45;;;3.15;;
27428;SDS011;14881;48.092;11.574;2023-04-30T14:10:04;3.60;;;3.30;;
27428;SDS011;14881;48.092;11.574;2023-04-30T14:12:34;5.90;;;3.53;;
27428;SDS011;14881;48.092;11.574;2023-04-30T14:15:03;14.75;;;8.10;;
27428;SDS011;14881;48.092;11.574;2023-04-30T14:17:32;7.70;;;5.18;;
27428;SDS011;14881;48.092;11.574;2023-04-30T14:20:00;4.53;;;3.97;;
27428;SDS011;14881;48.092;11.574;2023-04-30T14:22:29;4.57;;;3.97;;
27428;SDS011;14881;48.092;11.574;2023-04-30T14:24:59;21.42;;;10.57;;
27428;SDS011;14881;48.092;11.574;2023-04-30T14:27:27;3.55;;;3.25;;
27428;SDS011;14881;48.092;11.574;2023-04-30T14:29:56;36.88;;;17.05;;
27428;SDS011;14881;48.092;11.574;2023-04-30T14:32:24;3.10;;;2.80;;
27428;SDS011;14881;48.092;11.574;2023-04-30T14:34:53;3.78;;;3.38;;
27428;SDS011;14881;48.092;11.574;2023-04-30T14:37:20;5.10;;;3.80;;
27428;SDS011;14881;48.092;11.574;2023-04-30T14:39:49;4.68;;;3.08;;